Perdoes, Brazil
Current Conditions -  °F | °C
As of 6:00 AM on Saturday 25 Oct 2014 (Local Time) from SBBQ Reporting Station
Haze Haze  
Wind Chill: 59°   Ceiling: 10000
Heat Index: 59°   Visibility: 2.5mi
Dew Point: 55°   Wind: 3mph
Humidity: 88%   Direction: 100°E
Pressure: 30.09"   Gusts: NA
Location:  21.09°S, 45.09°W
Report Text: SBBQ 250800Z 10003KT 4000 BR FEW007 BKN100 15/13 Q1019
Loading
Personal Weather Stations






























Interactive Weather Map
Tropical Storm Tracking
New forecast layout! Learn more

10-Day Weather Forecast

Advertisements
Track Severe Weather on mobile